Time;durP1;ratioP1;P1;durP2;ratioP2;P2;SDS_P1;SDS_P2;PMS_P1;PMS_P2;Temp;Humidity;BMP_temperature;BMP_pressure;BME280_temperature;BME280_humidity;BME280_pressure;Samples;Min_cycle;Max_cycle;Signal;HPM_P1;HPM_P2
2022/01/13 00:00:36;;;;;;;38.10;15.77;;;;;;;-1.37;57.38;102468.84;5434997;32;34677;-71
2022/01/13 00:03:39;;;;;;;35.90;16.07;;;;;;;-1.84;57.67;102463.34;5428492;32;35135;-68
2022/01/13 00:06:42;;;;;;;36.40;15.80;;;;;;;-2.28;59.71;102469.91;5425551;32;35324;-72
2022/01/13 00:09:44;;;;;;;38.67;15.17;;;;;;;-2.40;60.85;102475.38;5434654;32;34512;-68
2022/01/13 00:12:47;;;;;;;36.93;15.33;;;;;;;-1.81;58.27;102476.34;5446883;32;34036;-72
2022/01/13 00:16:01;;;;;;;38.10;15.60;;;;;;;-2.47;60.47;102484.50;5450015;32;33967;-70
2022/01/13 00:19:07;;;;;;;39.37;15.90;;;;;;;-2.43;61.06;102479.50;5437552;32;33846;-69
2022/01/13 00:25:21;;;;;;;36.50;16.47;;;;;;;-2.56;60.92;102454.88;5433077;32;34175;-71
2022/01/13 00:28:23;;;;;;;;;;;;;;;-2.49;60.84;102468.09;5444382;32;34763;-68
2022/01/13 00:31:28;;;;;;;35.50;15.73;;;;;;;-1.97;58.72;102467.94;5430099;32;34317;-67
2022/01/13 00:34:31;;;;;;;43.47;15.83;;;;;;;-2.27;60.63;102476.81;5444904;32;35049;-71
2022/01/13 00:37:34;;;;;;;37.53;15.80;;;;;;;-1.23;57.20;102464.25;5445886;32;34200;-68
2022/01/13 00:40:36;;;;;;;41.63;17.15;;;;;;;-2.26;59.58;102473.44;5449115;32;35763;-69
2022/01/13 00:43:41;;;;;;;35.83;16.10;;;;;;;-1.94;57.88;102447.44;5442742;32;34126;-67
2022/01/13 00:46:45;;;;;;;38.53;15.87;;;;;;;-1.83;58.46;102476.28;5420327;32;34064;-68
2022/01/13 00:49:48;;;;;;;36.33;14.77;;;;;;;-1.15;56.44;102468.06;5440936;32;34735;-68
2022/01/13 00:52:51;;;;;;;44.00;16.87;;;;;;;-0.89;55.92;102465.69;5432111;32;34792;-69
2022/01/13 00:55:59;;;;;;;37.60;15.17;;;;;;;-2.73;61.55;102484.97;5441929;32;33836;-71
2022/01/13 00:59:07;;;;;;;34.57;14.70;;;;;;;-2.75;61.92;102490.03;5422744;32;34302;-69
2022/01/13 01:02:09;;;;;;;41.83;16.47;;;;;;;-2.37;60.30;102495.25;5403214;32;34796;-70
2022/01/13 01:05:11;;;;;;;39.30;15.67;;;;;;;-2.22;60.29;102495.97;5441252;32;34140;-71
2022/01/13 01:08:14;;;;;;;38.07;15.47;;;;;;;-2.42;60.38;102496.72;5432329;32;34591;-68
2022/01/13 01:11:19;;;;;;;37.30;16.63;;;;;;;-2.69;61.02;102499.75;5433167;32;34059;-72
2022/01/13 01:14:21;;;;;;;39.13;16.10;;;;;;;-3.03;62.73;102516.12;5439915;32;34052;-67
2022/01/13 01:17:23;;;;;;;36.13;15.90;;;;;;;-2.20;60.75;102507.22;5442514;32;35492;-70
2022/01/13 01:20:30;;;;;;;34.23;16.00;;;;;;;-2.06;60.13;102507.84;5438501;32;33944;-69
2022/01/13 01:23:38;;;;;;;36.73;14.73;;;;;;;-1.48;58.34;102510.47;5420182;32;33908;-70
2022/01/13 01:26:46;;;;;;;40.17;17.17;;;;;;;-1.40;58.44;102507.41;5440421;32;33970;-71
2022/01/13 01:30:34;;;;;;;38.33;16.53;;;;;;;-1.46;57.93;102501.13;5432304;32;34779;-69
2022/01/13 01:33:19;;;;;;;36.90;16.73;;;;;;;-1.24;57.46;102496.06;5419950;32;34626;-72
2022/01/13 01:36:21;;;;;;;40.03;15.00;;;;;;;-1.53;58.06;102499.97;5456223;32;35257;-72
2022/01/13 01:39:24;;;;;;;37.03;16.13;;;;;;;-0.25;54.39;102483.72;5440006;32;34385;-68
2022/01/13 01:42:27;;;;;;;40.83;18.07;;;;;;;-1.13;56.03;102484.50;5448871;32;33858;-67
2022/01/13 01:45:33;;;;;;;40.57;17.03;;;;;;;-1.30;57.19;102506.09;5419636;32;34599;-69
2022/01/13 01:48:36;;;;;;;37.83;14.80;;;;;;;-1.74;58.67;102504.16;5437744;32;34309;-70
2022/01/13 01:51:38;;;;;;;42.35;17.00;;;;;;;-1.19;57.83;102491.97;5434115;32;33863;-71
2022/01/13 01:54:41;;;;;;;37.47;17.53;;;;;;;-0.99;56.12;102497.09;5433409;32;35016;-69
2022/01/13 01:57:45;;;;;;;37.53;16.30;;;;;;;-1.88;58.98;102500.97;5392259;32;35413;-69
2022/01/13 02:00:47;;;;;;;39.85;15.93;;;;;;;-1.71;59.27;102501.72;5430044;32;34093;-73
2022/01/13 02:03:50;;;;;;;38.03;16.23;;;;;;;-1.55;58.84;102505.84;5440481;32;34150;-72
2022/01/13 02:06:56;;;;;;;44.23;17.67;;;;;;;-1.36;58.32;102498.97;5445341;32;35151;-71
2022/01/13 02:09:58;;;;;;;38.83;15.63;;;;;;;-1.99;60.03;102505.66;5442775;32;33880;-68
2022/01/13 02:13:06;;;;;;;37.87;16.73;;;;;;;-2.44;61.59;102504.37;5435983;32;34497;-68
2022/01/13 02:16:25;;;;;;;40.40;17.00;;;;;;;-2.57;63.00;102502.03;5418877;32;34632;-68
2022/01/13 02:19:27;;;;;;;45.07;16.80;;;;;;;-2.36;62.01;102504.75;5439501;32;34393;-67
2022/01/13 02:22:30;;;;;;;44.60;18.33;;;;;;;-1.95;60.68;102507.53;5431831;32;33962;-67
2022/01/13 02:25:32;;;;;;;41.70;18.10;;;;;;;-2.39;61.73;102502.88;5439171;32;33944;-71
2022/01/13 02:28:35;;;;;;;39.53;18.03;;;;;;;-2.22;61.35;102501.13;5418914;32;34683;-67
2022/01/13 02:31:37;;;;;;;39.40;18.07;;;;;;;-2.47;62.59;102488.78;5418141;32;35251;-70
2022/01/13 02:34:39;;;;;;;39.27;18.10;;;;;;;-1.98;60.93;102510.00;5440004;32;33876;-69
2022/01/13 02:37:42;;;;;;;45.10;19.57;;;;;;;-2.09;60.65;102518.91;5430989;32;34846;-67
2022/01/13 02:40:44;;;;;;;48.33;18.87;;;;;;;-2.20;61.28;102520.97;5439709;32;34710;-70
2022/01/13 02:43:47;;;;;;;43.30;20.30;;;;;;;-2.42;61.89;102520.78;5434064;32;34456;-67
2022/01/13 02:49:53;;;;;;;48.25;21.08;;;;;;;-2.69;63.23;102499.75;5442955;32;34873;-70
2022/01/13 02:52:55;;;;;;;50.47;21.80;;;;;;;-2.75;63.36;102495.19;5439884;32;34064;-69
2022/01/13 02:56:02;;;;;;;50.40;21.27;;;;;;;-2.82;63.46;102493.12;5435911;32;34138;-68
2022/01/13 02:59:05;;;;;;;45.50;21.37;;;;;;;-2.16;61.40;102490.22;5417083;32;33549;-67
2022/01/13 03:02:08;;;;;;;51.72;21.67;;;;;;;-2.16;61.33;102488.53;5444659;32;34752;-67
2022/01/13 03:05:13;;;;;;;46.03;22.27;;;;;;;-2.70;62.77;102498.00;5442542;32;34943;-70
2022/01/13 03:08:15;;;;;;;49.27;21.07;;;;;;;-2.60;62.38;102497.59;5439956;32;34941;-70
2022/01/13 03:11:18;;;;;;;53.03;21.87;;;;;;;-2.27;60.82;102493.16;5440781;32;34672;-69
2022/01/13 03:14:20;;;;;;;48.87;22.70;;;;;;;-2.01;60.57;102499.53;5432173;32;34746;-71
2022/01/13 03:17:22;;;;;;;57.37;21.43;;;;;;;-2.42;61.43;102505.34;5439480;32;34166;-70
2022/01/13 03:20:25;;;;;;;50.43;21.67;;;;;;;-2.35;61.54;102507.38;5447478;32;34623;-67
2022/01/13 03:23:27;;;;;;;48.93;21.40;;;;;;;-2.92;63.47;102523.47;5426621;32;36164;-69
2022/01/13 03:26:29;;;;;;;47.60;20.47;;;;;;;-1.04;58.09;102532.16;5449951;32;34902;-67
2022/01/13 03:29:31;;;;;;;58.07;22.87;;;;;;;-1.03;56.95;102523.56;5407667;32;34741;-67
2022/01/13 03:32:35;;;;;;;51.47;22.00;;;;;;;-1.47;58.01;102535.47;5423979;32;34716;-67
2022/01/13 03:35:39;;;;;;;51.85;22.10;;;;;;;-2.19;61.07;102512.47;5434622;32;35183;-68
2022/01/13 03:38:41;;;;;;;56.72;22.90;;;;;;;-1.87;60.02;102535.34;5413953;32;35252;-70
2022/01/13 03:41:43;;;;;;;55.47;23.47;;;;;;;-1.66;60.22;102538.91;5446489;32;34306;-67
2022/01/13 03:44:46;;;;;;;48.00;22.63;;;;;;;-2.47;62.66;102511.94;5441325;32;35247;-67
2022/01/13 03:47:48;;;;;;;50.10;21.73;;;;;;;-2.36;62.52;102528.81;5419256;32;35321;-69
2022/01/13 03:50:50;;;;;;;47.67;21.30;;;;;;;-2.31;63.54;102529.03;5438444;32;34117;-69
2022/01/13 03:54:23;;;;;;;52.60;22.43;;;;;;;-2.86;65.51;102527.22;5442803;32;35156;-69
2022/01/13 03:58:06;;;;;;;53.73;22.13;;;;;;;-2.09;62.82;102525.75;5440281;32;34357;-69
2022/01/13 04:01:46;;;;;;;56.07;23.77;;;;;;;-2.75;65.31;102535.47;5431959;32;34646;-68
2022/01/13 04:04:49;;;;;;;54.73;24.50;;;;;;;-2.75;64.41;102528.66;5449448;32;34132;-68
2022/01/13 04:07:51;;;;;;;55.63;24.53;;;;;;;-2.62;64.41;102514.69;5430559;32;34730;-68
2022/01/13 04:11:14;;;;;;;57.00;25.20;;;;;;;-2.69;63.41;102501.44;5447067;32;34087;-71
2022/01/13 04:14:19;;;;;;;55.27;23.93;;;;;;;-2.66;64.59;102527.31;5434088;32;34386;-68
2022/01/13 04:17:22;;;;;;;53.37;24.50;;;;;;;-2.81;64.48;102525.75;5421387;32;35317;-69
2022/01/13 04:20:25;;;;;;;55.10;24.35;;;;;;;-3.03;65.22;102515.19;5413247;32;34558;-69
2022/01/13 04:23:27;;;;;;;57.97;24.07;;;;;;;-2.72;64.14;102490.16;5419686;32;34888;-71
2022/01/13 04:26:30;;;;;;;52.43;23.93;;;;;;;-2.15;62.76;102473.94;5439249;32;34469;-69
2022/01/13 04:29:41;;;;;;;59.77;25.13;;;;;;;-2.24;61.50;102454.69;5419870;32;34775;-69
2022/01/13 04:32:43;;;;;;;53.70;23.10;;;;;;;-2.43;64.32;102454.66;5414231;32;33998;-71
2022/01/13 04:35:45;;;;;;;53.87;23.27;;;;;;;-2.86;65.41;102449.12;5433533;32;36025;-69
2022/01/13 04:38:48;;;;;;;54.60;23.60;;;;;;;-2.36;63.69;102448.97;5407250;32;34522;-71
2022/01/13 04:41:52;;;;;;;53.73;22.50;;;;;;;-2.54;64.55;102454.13;5439414;32;34700;-72
2022/01/13 04:44:54;;;;;;;;;;;;;;;-2.57;65.00;102451.44;5444129;32;33896;-67
2022/01/13 04:47:57;;;;;;;51.50;21.13;;;;;;;-2.27;63.69;102459.69;5446098;32;34548;-69
2022/01/13 04:50:59;;;;;;;49.57;21.47;;;;;;;-1.85;62.32;102459.88;5432404;32;33913;-68
2022/01/13 04:54:02;;;;;;;89.10;24.80;;;;;;;-0.59;58.25;102466.88;5443593;32;34807;-70
2022/01/13 04:57:08;;;;;;;65.03;23.13;;;;;;;-1.64;60.26;102478.84;5443914;32;34057;-71
2022/01/13 05:00:10;;;;;;;51.50;20.57;;;;;;;-1.78;62.13;102479.94;5425208;32;34781;-70
2022/01/13 05:03:12;;;;;;;47.70;21.63;;;;;;;-0.65;58.60;102473.50;5427993;32;34182;-68
2022/01/13 05:06:18;;;;;;;49.67;22.53;;;;;;;-0.19;56.30;102468.47;5449301;32;34120;-71
2022/01/13 05:09:21;;;;;;;48.90;20.80;;;;;;;-0.05;55.43;102479.31;5445885;32;34540;-68
2022/01/13 05:12:29;;;;;;;54.13;21.83;;;;;;;-0.35;56.27;102473.84;5432837;32;33660;-68
2022/01/13 05:15:32;;;;;;;47.87;19.30;;;;;;;-0.55;56.76;102483.41;5436118;32;34843;-68
2022/01/13 05:24:49;;;;;;;50.57;21.67;;;;;;;-0.06;55.43;102499.12;5440604;32;34061;-69
2022/01/13 05:27:51;;;;;;;44.08;20.37;;;;;;;-0.45;56.30;102518.22;5417608;32;35145;-67
2022/01/13 05:30:53;;;;;;;48.93;20.10;;;;;;;-0.68;57.21;102510.44;5440205;32;34116;-70
2022/01/13 05:33:56;;;;;;;39.53;18.90;;;;;;;-0.15;54.93;102514.25;5434309;32;34101;-68
2022/01/13 05:36:58;;;;;;;41.10;19.10;;;;;;;-0.48;55.33;102524.16;5417953;32;34052;-70
2022/01/13 05:40:00;;;;;;;46.33;18.10;;;;;;;-0.56;55.92;102523.84;5426101;32;34446;-69
2022/01/13 05:43:04;;;;;;;43.93;16.43;;;;;;;-1.32;56.98;102527.50;5416374;32;34867;-70
2022/01/13 05:46:12;;;;;;;37.30;17.30;;;;;;;-0.61;55.51;102520.19;5437427;32;33972;-67
2022/01/13 05:49:14;;;;;;;40.30;17.47;;;;;;;-0.97;57.58;102518.69;5436035;32;33018;-68
2022/01/13 05:52:17;;;;;;;46.57;18.43;;;;;;;-0.14;54.82;102504.78;5436973;32;34531;-71
2022/01/13 05:55:19;;;;;;;37.60;17.87;;;;;;;-0.31;55.58;102494.72;5442115;32;34410;-68
2022/01/13 05:58:21;;;;;;;45.30;18.67;;;;;;;-0.03;54.85;102499.22;5414458;32;34039;-69
2022/01/13 06:01:23;;;;;;;41.23;18.30;;;;;;;-0.97;57.86;102511.81;5422372;32;34625;-71
2022/01/13 06:04:26;;;;;;;43.10;17.70;;;;;;;-0.76;57.68;102506.69;5432979;32;34081;-70
2022/01/13 06:07:28;;;;;;;41.90;18.00;;;;;;;-1.06;59.00;102510.56;5423477;32;34018;-68
2022/01/13 06:10:30;;;;;;;43.40;19.10;;;;;;;-0.60;57.49;102503.88;5408403;32;34801;-68
2022/01/13 06:13:32;;;;;;;44.07;20.13;;;;;;;-0.88;58.22;102499.31;5437035;32;33358;-68
2022/01/13 06:16:35;;;;;;;42.33;17.43;;;;;;;-0.78;58.13;102500.53;5436085;32;34741;-68
2022/01/13 06:19:37;;;;;;;42.80;18.50;;;;;;;-0.22;55.85;102493.28;5431138;32;36288;-70
2022/01/13 06:22:41;;;;;;;45.17;19.50;;;;;;;-0.42;57.07;102488.22;5406339;32;34093;-67
2022/01/13 06:25:43;;;;;;;49.33;19.80;;;;;;;-0.90;59.08;102487.13;5412252;32;34523;-69
2022/01/13 06:28:45;;;;;;;44.03;20.57;;;;;;;-0.81;59.05;102490.09;5436613;32;33916;-70
2022/01/13 06:31:47;;;;;;;44.00;19.97;;;;;;;-0.45;57.28;102469.12;5403258;32;34144;-67
2022/01/13 06:34:49;;;;;;;51.13;20.17;;;;;;;-0.60;58.57;102503.88;5443962;32;34672;-72
2022/01/13 06:37:52;;;;;;;49.03;20.10;;;;;;;-0.73;58.54;102499.03;5432836;32;34834;-68
2022/01/13 06:40:54;;;;;;;51.83;19.57;;;;;;;-0.04;56.06;102500.06;5438922;32;34009;-71
2022/01/13 06:43:56;;;;;;;47.90;21.00;;;;;;;-0.16;56.03;102501.28;5436266;32;34991;-68
2022/01/13 06:46:59;;;;;;;49.97;21.93;;;;;;;0.28;55.21;102490.03;5402071;32;34070;-70
2022/01/13 06:50:01;;;;;;;57.43;23.10;;;;;;;0.03;55.60;102497.69;5450380;32;35230;-70
2022/01/13 06:53:03;;;;;;;54.87;20.67;;;;;;;-0.85;57.95;102493.38;5425237;32;35237;-70
2022/01/13 06:56:05;;;;;;;49.00;20.70;;;;;;;-0.06;56.63;102486.19;5438359;32;34620;-69
2022/01/13 06:59:12;;;;;;;51.33;21.50;;;;;;;-0.12;56.56;102493.72;5435465;32;35307;-63
2022/01/13 07:02:15;;;;;;;51.07;20.83;;;;;;;-1.16;58.91;102507.59;5410716;32;34205;-73
2022/01/13 07:05:17;;;;;;;50.07;22.27;;;;;;;-0.63;58.37;102493.44;5425238;32;34014;-65
2022/01/13 07:08:19;;;;;;;57.20;22.77;;;;;;;-0.24;57.48;102498.41;5411380;32;36461;-66
2022/01/13 07:11:22;;;;;;;48.47;21.20;;;;;;;-0.10;57.03;102486.88;5413320;32;35902;-64
2022/01/13 07:14:24;;;;;;;47.70;20.93;;;;;;;-0.44;58.42;102489.88;5444972;32;33997;-63
2022/01/13 07:17:27;;;;;;;55.53;22.07;;;;;;;-0.44;58.45;102504.50;5422512;32;33961;-73
2022/01/13 07:20:29;;;;;;;51.97;22.20;;;;;;;-0.23;58.07;102502.75;5436456;32;34100;-71
2022/01/13 07:23:32;;;;;;;58.70;24.87;;;;;;;0.23;56.48;102507.06;5422636;32;34309;-62
2022/01/13 07:26:34;;;;;;;51.27;23.07;;;;;;;0.34;55.79;102503.19;5437443;32;34025;-70
2022/01/13 07:29:42;;;;;;;56.80;23.97;;;;;;;0.38;55.58;102505.03;5428332;32;34053;-68
2022/01/13 07:32:45;;;;;;;53.07;23.50;;;;;;;-0.19;57.90;102511.50;5419586;32;34008;-73
2022/01/13 07:35:47;;;;;;;56.07;25.00;;;;;;;-0.57;58.19;102516.94;5439268;32;34175;-70
2022/01/13 07:38:50;;;;;;;55.67;24.70;;;;;;;-0.76;59.90;102524.75;5410750;32;34275;-72
2022/01/13 07:41:52;;;;;;;55.67;23.50;;;;;;;0.12;57.34;102511.84;5422532;32;34061;-73
2022/01/13 07:44:55;;;;;;;50.63;24.40;;;;;;;0.09;57.21;102526.38;5404230;32;33980;-78
2022/01/13 07:47:57;;;;;;;53.30;24.50;;;;;;;0.65;55.28;102519.81;5390984;32;34238;-70
2022/01/13 07:51:07;;;;;;;62.03;24.47;;;;;;;0.38;56.21;102522.25;5430144;32;34077;-72
2022/01/13 07:54:09;;;;;;;65.20;25.33;;;;;;;0.08;57.42;102530.66;5434349;32;34278;-70
2022/01/13 07:57:11;;;;;;;63.07;26.17;;;;;;;-0.50;59.33;102535.25;5437445;32;33762;-70
2022/01/13 08:00:14;;;;;;;55.77;24.93;;;;;;;-0.35;58.92;102536.75;5436705;32;34539;-71
2022/01/13 08:03:17;;;;;;;63.63;27.33;;;;;;;-0.59;59.38;102520.25;5436472;32;34499;-72
2022/01/13 08:06:19;;;;;;;63.40;27.90;;;;;;;0.44;57.28;102528.53;5404034;32;33921;-69
2022/01/13 08:09:23;;;;;;;76.43;30.20;;;;;;;0.15;56.74;102527.47;5432531;32;35355;-68
2022/01/13 08:12:26;;;;;;;64.47;29.23;;;;;;;-1.07;61.35;102539.78;5433904;32;34905;-61
2022/01/13 08:15:29;;;;;;;66.57;26.87;;;;;;;0.22;58.49;102533.75;5419700;32;32744;-65
2022/01/13 08:21:53;;;;;;;65.27;27.13;;;;;;;-0.65;60.49;102541.53;5435692;32;33909;-60
2022/01/13 08:24:55;;;;;;;66.03;29.33;;;;;;;-0.25;59.58;102543.16;5438865;32;33892;-67
2022/01/13 08:27:58;;;;;;;66.90;29.67;;;;;;;-0.11;59.13;102535.94;5433324;32;35079;-62
2022/01/13 08:31:00;;;;;;;65.63;28.97;;;;;;;0.02;58.91;102534.72;5403219;32;33945;-68
2022/01/13 08:34:03;;;;;;;59.77;28.30;;;;;;;0.00;59.48;102529.50;5367834;32;34300;-64
2022/01/13 08:37:05;;;;;;;70.17;28.80;;;;;;;0.83;57.40;102530.78;5375756;32;33946;-63
2022/01/13 08:40:11;;;;;;;65.40;27.90;;;;;;;0.29;57.61;102535.75;5392506;32;34765;-62
2022/01/13 08:43:15;;;;;;;62.67;27.90;;;;;;;1.03;55.46;102529.78;5387317;32;33888;-61
2022/01/13 08:46:17;;;;;;;66.65;29.27;;;;;;;0.57;57.27;102534.16;5397763;32;44506;-62
2022/01/13 08:49:24;;;;;;;60.90;27.47;;;;;;;1.97;52.81;102522.41;5394838;32;34322;-62
2022/01/13 08:52:26;;;;;;;63.87;28.43;;;;;;;0.05;58.51;102521.91;5384099;32;34449;-62
2022/01/13 08:55:29;;;;;;;64.53;27.43;;;;;;;1.46;55.27;102517.34;5362758;32;33037;-62
2022/01/13 08:58:31;;;;;;;59.80;28.07;;;;;;;1.87;53.54;102523.84;5367743;32;176859;-61
2022/01/13 09:01:33;;;;;;;67.77;28.07;;;;;;;2.29;52.74;102523.34;5381451;32;35227;-66
2022/01/13 09:04:36;;;;;;;67.80;27.43;;;;;;;1.48;55.40;102520.88;5378687;32;35203;-61
2022/01/13 09:07:38;;;;;;;63.83;28.40;;;;;;;2.06;53.58;102515.78;5379667;32;33939;-63
2022/01/13 09:10:44;;;;;;;76.63;28.73;;;;;;;1.97;52.54;102523.28;5382980;32;34047;-72
2022/01/13 09:13:46;;;;;;;65.63;30.23;;;;;;;2.27;52.73;102517.25;5382005;32;35268;-66
2022/01/13 09:16:49;;;;;;;62.13;30.07;;;;;;;1.92;53.52;102513.59;5376810;32;33832;-68
2022/01/13 09:19:51;;;;;;;62.97;29.73;;;;;;;1.72;54.43;102519.06;5383144;32;34063;-62
2022/01/13 09:22:55;;;;;;;58.42;27.48;;;;;;;2.56;52.32;102498.16;5387865;32;34928;-68
2022/01/13 09:25:58;;;;;;;69.17;27.67;;;;;;;3.00;51.35;102498.47;5390096;32;34185;-60
2022/01/13 09:29:01;;;;;;;68.25;29.63;;;;;;;3.73;49.14;102502.81;5383291;32;35139;-68
2022/01/13 09:32:03;;;;;;;60.20;26.67;;;;;;;4.13;48.63;102510.66;5379466;32;34794;-66
2022/01/13 09:35:08;;;;;;;51.83;24.27;;;;;;;2.71;54.06;102526.28;5393716;32;34043;-68
2022/01/13 09:38:10;;;;;;;49.87;22.43;;;;;;;2.99;54.63;102526.16;5386339;32;34808;-66
2022/01/13 09:41:13;;;;;;;47.13;21.40;;;;;;;2.78;56.54;102529.94;5378543;32;33001;-68
2022/01/13 09:44:15;;;;;;;46.10;19.97;;;;;;;3.73;53.99;102501.94;5382727;32;34783;-66
2022/01/13 09:47:17;;;;;;;54.50;20.80;;;;;;;4.39;52.01;102506.00;5387677;32;44279;-66
2022/01/13 09:50:21;;;;;;;47.37;22.03;;;;;;;4.23;53.11;102496.97;5387740;32;33983;-68
2022/01/13 09:53:23;;;;;;;45.33;20.80;;;;;;;4.25;52.78;102500.47;5391950;32;34541;-61
2022/01/13 09:56:25;;;;;;;48.63;19.93;;;;;;;3.99;53.39;102482.62;5345674;32;34425;-62
2022/01/13 09:59:28;;;;;;;40.87;19.87;;;;;;;4.53;52.90;102481.97;5359055;32;34775;-61
2022/01/13 10:02:31;;;;;;;43.30;17.63;;;;;;;4.50;53.15;102478.41;5359868;32;34604;-69
2022/01/13 10:05:37;;;;;;;43.30;18.23;;;;;;;2.84;57.78;102489.41;5382266;32;34089;-61
2022/01/13 10:08:58;;;;;;;42.27;17.13;;;;;;;3.87;56.19;102481.47;5379503;32;34561;-68
2022/01/13 10:12:06;;;;;;;36.20;15.50;;;;;;;5.10;52.54;102473.44;5383851;32;34186;-62
2022/01/13 10:18:46;;;;;;;35.93;14.90;;;;;;;4.79;53.19;102456.41;5382365;32;34464;-67
2022/01/13 10:21:58;;;;;;;30.37;14.27;;;;;;;5.43;51.56;102447.00;5384876;32;45815;-67
2022/01/13 10:25:01;;;;;;;30.77;14.23;;;;;;;5.68;51.23;102449.97;5378070;32;35073;-71
2022/01/13 10:28:27;;;;;;;27.40;12.63;;;;;;;4.54;54.20;102452.47;5372264;32;34045;-78
2022/01/13 10:31:58;;;;;;;29.50;11.57;;;;;;;5.33;52.59;102444.22;5353842;32;35459;-69
2022/01/13 10:35:32;;;;;;;32.17;13.07;;;;;;;4.53;54.61;102452.44;5385964;32;33242;-75
2022/01/13 10:39:10;;;;;;;26.20;11.70;;;;;;;4.75;54.32;102435.47;5374613;32;33912;-75
2022/01/13 10:43:06;;;;;;;29.17;12.00;;;;;;;4.99;53.48;102435.00;5389020;32;34605;-66
2022/01/13 10:46:37;;;;;;;;;;;;;;;;;;;;;
2022/01/13 10:53:25;;;;;;;31.30;13.77;;;;;;;4.85;53.86;102430.44;5361027;32;34372;-70
2022/01/13 10:56:42;;;;;;;35.07;14.80;;;;;;;3.54;57.58;102443.44;5373615;32;35991;-72
2022/01/13 11:00:23;;;;;;;24.27;11.80;;;;;;;5.38;54.14;102425.19;5365226;32;35304;-75
2022/01/13 11:04:02;;;;;;;29.63;12.97;;;;;;;7.30;47.36;102402.03;5379902;32;35955;-67
2022/01/13 11:07:31;;;;;;;30.07;14.23;;;;;;;5.40;51.68;102415.66;5387986;32;33305;-70
2022/01/13 11:11:02;;;;;;;29.47;13.33;;;;;;;5.25;53.56;102412.84;5356661;32;34186;-69
2022/01/13 11:14:24;;;;;;;32.63;14.80;;;;;;;5.72;52.09;102404.78;5366068;32;35518;-72
2022/01/13 11:18:04;;;;;;;31.40;15.37;;;;;;;5.25;52.54;102406.75;5361104;32;36328;-69
2022/01/13 11:25:57;;;;;;;30.63;13.07;;;;;;;5.85;50.82;102400.59;5373318;32;32204;-76
2022/01/13 11:29:46;;;;;;;31.47;14.33;;;;;;;5.13;53.18;102400.47;5374126;32;35663;-75
2022/01/13 11:33:38;;;;;;;31.83;14.17;;;;;;;4.93;53.78;102398.44;5384620;32;34574;-73
2022/01/13 11:44:35;;;;;;;30.87;12.57;;;;;;;5.96;51.71;102389.47;5401482;32;35172;-70
2022/01/13 11:48:18;;;;;;;28.50;13.67;;;;;;;5.05;53.32;102402.09;5388468;32;32508;-75
2022/01/13 11:52:15;;;;;;;31.93;13.50;;;;;;;5.98;51.17;102387.75;5291174;33;35915;-66
2022/01/13 11:55:50;;;;;;;34.27;12.80;;;;;;;6.64;49.03;102377.12;5269610;33;33875;-69
2022/01/13 11:59:13;;;;;;;25.35;11.95;;;;;;;6.21;49.96;102394.97;5227148;33;34486;-69
2022/01/13 12:02:28;;;;;;;24.70;12.23;;;;;;;4.81;53.68;102399.97;5289349;33;33799;-70
2022/01/13 12:05:46;;;;;;;25.73;11.70;;;;;;;4.81;54.58;102394.75;5293025;33;34943;-74
2022/01/13 12:08:56;;;;;;;26.53;12.00;;;;;;;5.91;51.98;102387.66;5283529;33;35787;-76
2022/01/13 12:12:30;;;;;;;25.60;11.67;;;;;;;6.62;49.89;102378.84;5307412;33;35220;-76
2022/01/13 12:16:00;;;;;;;25.57;11.73;;;;;;;5.97;51.36;102392.97;5281082;33;33804;-68
2022/01/13 12:19:28;;;;;;;28.07;10.87;;;;;;;5.82;52.94;102401.47;5307729;33;35403;-77
2022/01/13 12:22:57;;;;;;;24.20;11.30;;;;;;;7.78;46.67;102379.59;5295554;33;36258;-68
2022/01/13 12:26:33;;;;;;;26.20;11.27;;;;;;;7.51;47.10;102375.97;5311803;33;34312;-75
2022/01/13 12:30:11;;;;;;;28.85;11.18;;;;;;;8.53;44.06;102361.47;5377187;32;35845;-78
2022/01/13 12:33:42;;;;;;;22.13;11.45;;;;;;;7.12;47.86;102357.44;5361399;32;34944;-74
2022/01/13 12:38:27;;;;;;;24.77;11.47;;;;;;;6.62;50.04;102345.75;5348000;32;34738;-74
2022/01/13 12:42:33;;;;;;;24.87;12.20;;;;;;;6.28;51.14;102343.69;5255692;33;35401;-69
2022/01/13 12:46:51;;;;;;;28.00;12.93;;;;;;;6.59;49.73;102323.94;5276034;32;33619;-70
2022/01/13 12:50:56;;;;;;;29.07;13.10;;;;;;;4.75;55.30;102339.06;5251990;33;34944;-69
2022/01/13 12:54:27;;;;;;;32.40;13.23;;;;;;;4.87;54.90;102352.31;5252500;33;33296;-77
2022/01/13 12:58:40;;;;;;;30.97;13.97;;;;;;;3.94;58.07;102384.50;5222268;33;32718;-74
2022/01/13 13:06:48;;;;;;;29.37;13.60;;;;;;;5.84;52.26;102389.28;5331259;32;35351;-68
2022/01/13 13:10:01;;;;;;;29.40;14.30;;;;;;;4.67;55.26;102385.84;5392283;32;42737;-73
2022/01/13 13:13:12;;;;;;;31.30;13.95;;;;;;;5.13;54.11;102366.59;5397217;32;35337;-76
2022/01/13 13:16:56;;;;;;;;;;;;;;;;;;;;;
2022/01/13 13:20:34;;;;;;;26.50;12.80;;;;;;;5.45;53.99;102358.34;5381947;32;44747;-66
2022/01/13 13:24:16;;;;;;;28.03;12.47;;;;;;;4.07;57.93;102347.47;5311231;32;33739;-68
2022/01/13 13:28:25;;;;;;;29.10;13.37;;;;;;;4.69;55.99;102331.16;5283886;33;35946;-68
2022/01/13 13:32:16;;;;;;;35.00;15.27;;;;;;;4.51;56.96;102329.16;5273120;33;34455;-74
2022/01/13 13:35:58;;;;;;;27.83;12.83;;;;;;;3.87;58.21;102331.47;5275970;33;35454;-69
2022/01/13 13:43:47;;;;;;;27.93;13.00;;;;;;;4.43;57.36;102322.91;5239358;33;34597;-69
2022/01/13 13:47:17;;;;;;;31.53;14.83;;;;;;;5.16;55.04;102339.72;5290185;33;43977;-68
2022/01/13 13:50:32;;;;;;;29.07;12.23;;;;;;;3.87;58.40;102347.06;5275532;33;42975;-70
2022/01/13 13:54:13;;;;;;;27.53;13.20;;;;;;;4.30;57.44;102330.50;5358325;32;35240;-77
2022/01/13 13:57:49;;;;;;;29.43;12.67;;;;;;;4.36;57.30;102340.16;5313073;32;42870;-69
2022/01/13 14:01:28;;;;;;;30.80;13.70;;;;;;;4.19;57.84;102347.69;5395504;32;34559;-79
2022/01/13 14:04:46;;;;;;;30.37;13.73;;;;;;;3.83;59.08;102350.47;5388203;32;34873;-77
2022/01/13 14:07:55;;;;;;;25.20;12.90;;;;;;;4.65;56.56;102340.66;5414461;32;43182;-76
2022/01/13 14:11:56;;;;;;;32.53;13.65;;;;;;;3.88;58.86;102354.03;5394720;32;35765;-71
2022/01/13 14:16:20;;;;;;;39.07;14.07;;;;;;;4.28;58.14;102342.63;5383523;32;44587;-76
2022/01/13 14:19:51;;;;;;;30.17;13.27;;;;;;;3.56;59.86;102324.78;5372757;32;35478;-72
2022/01/13 14:23:41;;;;;;;30.07;13.20;;;;;;;3.47;59.70;102327.16;5380774;32;42813;-75
2022/01/13 14:27:28;;;;;;;31.60;13.67;;;;;;;3.58;60.49;102317.87;5326971;32;34634;-70
2022/01/13 14:30:55;;;;;;;30.77;13.77;;;;;;;3.99;59.51;102313.50;5406881;32;34686;-73
2022/01/13 14:39:05;;;;;;;29.83;13.47;;;;;;;3.86;59.71;102310.59;5255959;33;35987;-73
2022/01/13 14:43:43;;;;;;;;;;;;;;;;;;;;;
2022/01/13 14:54:36;;;;;;;35.47;14.23;;;;;;;3.91;60.23;102316.78;5291473;33;34619;-82
2022/01/13 14:58:21;;;;;;;29.40;14.07;;;;;;;3.80;60.68;102314.87;5278538;33;44979;-82
2022/01/13 15:07:02;;;;;;;32.00;14.00;;;;;;;4.08;59.44;102291.97;5238716;33;34384;-78
2022/01/13 15:14:54;;;;;;;30.20;13.53;;;;;;;4.20;59.16;102275.69;5218391;33;34803;-79
2022/01/13 15:18:28;;;;;;;38.27;14.30;;;;;;;3.90;60.93;102276.88;5239017;33;35341;-79
2022/01/13 15:21:46;;;;;;;34.23;16.27;;;;;;;3.58;61.66;102272.81;5293146;33;32674;-73
2022/01/13 15:25:26;;;;;;;30.20;14.50;;;;;;;4.27;60.03;102272.34;5341170;33;34559;-74
2022/01/13 15:28:49;;;;;;;32.17;13.93;;;;;;;4.48;59.05;102277.00;5330893;33;33709;-73
2022/01/13 15:32:00;;;;;;;27.57;12.93;;;;;;;4.18;59.89;102266.97;5327876;33;43315;-74
2022/01/13 15:35:09;;;;;;;29.30;13.23;;;;;;;3.04;63.50;102265.62;5339999;33;35642;-78
2022/01/13 15:38:22;;;;;;;28.00;13.40;;;;;;;4.11;61.11;102263.38;5337460;33;36371;-74
2022/01/13 15:41:59;;;;;;;32.47;13.95;;;;;;;4.46;59.43;102260.50;5334919;33;36319;-81
2022/01/13 15:45:12;;;;;;;27.45;13.15;;;;;;;3.29;63.20;102264.44;5374082;32;34106;-82
2022/01/13 15:48:55;;;;;;;28.80;13.87;;;;;;;3.69;61.65;102261.75;5379327;32;35838;-80
2022/01/13 15:52:02;;;;;;;32.13;13.10;;;;;;;4.44;60.08;102254.38;5382752;32;34744;-80